createdAt,value
2022-09-28T00:02:13.336Z,49.89
2022-09-28T00:04:40.254Z,49.86
2022-09-28T00:07:07.132Z,49.71
2022-09-28T00:09:33.948Z,49.99
2022-09-28T00:12:01.159Z,49.99
2022-09-28T00:14:28.330Z,50.04
2022-09-28T00:16:55.318Z,49.90
2022-09-28T00:19:22.292Z,49.99
2022-09-28T00:21:49.237Z,50.05
2022-09-28T00:24:16.127Z,50.07
2022-09-28T00:26:50.504Z,49.94
2022-09-28T00:29:32.966Z,50.13
2022-09-28T00:32:02.612Z,50.10
2022-09-28T00:34:33.809Z,50.23
2022-09-28T00:37:01.123Z,50.10
2022-09-28T00:39:28.138Z,49.89
2022-09-28T00:41:55.112Z,49.82
2022-09-28T00:44:39.159Z,50.01
2022-09-28T00:47:26.770Z,50.18
2022-09-28T00:50:05.465Z,50.41
2022-09-28T00:52:36.497Z,50.60
2022-09-28T00:55:05.553Z,50.67
2022-09-28T00:57:32.436Z,50.35
2022-09-28T00:59:59.675Z,50.50
2022-09-28T01:02:26.637Z,50.85
2022-09-28T01:04:53.611Z,50.62
2022-09-28T01:07:20.513Z,50.82
2022-09-28T01:09:47.672Z,51.09
2022-09-28T01:12:14.590Z,50.89
2022-09-28T01:14:41.508Z,50.92
2022-09-28T01:17:15.687Z,50.82
2022-09-28T01:20:18.131Z,50.98
2022-09-28T01:22:55.143Z,51.02
2022-09-28T01:25:28.238Z,50.79
2022-09-28T01:28:15.076Z,50.75
2022-09-28T01:31:00.347Z,50.54
2022-09-28T01:33:30.104Z,50.90
2022-09-28T01:36:04.484Z,50.91
2022-09-28T01:38:34.223Z,50.73
2022-09-28T01:41:01.094Z,50.68
2022-09-28T01:43:28.651Z,50.53
2022-09-28T01:46:18.795Z,51.04
2022-09-28T01:48:59.924Z,50.69
2022-09-28T01:51:52.182Z,50.89
2022-09-28T01:54:26.954Z,50.86
2022-09-28T01:57:05.989Z,50.84
2022-09-28T01:59:33.813Z,50.86
2022-09-28T02:02:07.221Z,50.63
2022-09-28T02:04:37.215Z,50.92
2022-09-28T02:07:09.740Z,50.91
2022-09-28T02:09:46.153Z,50.65
2022-09-28T02:12:16.434Z,50.69
2022-09-28T02:14:44.736Z,50.49
2022-09-28T02:17:11.601Z,50.40
2022-09-28T02:19:38.468Z,50.45
2022-09-28T02:22:05.186Z,50.40
2022-09-28T02:24:46.474Z,49.80
2022-09-28T02:27:41.506Z,49.53
2022-09-28T02:30:09.025Z,49.80
2022-09-28T02:32:40.273Z,49.46
2022-09-28T02:35:10.989Z,49.33
2022-09-28T02:37:38.794Z,49.28
2022-09-28T02:40:24.554Z,48.96
2022-09-28T02:43:23.778Z,48.84
2022-09-28T02:46:02.233Z,48.85
2022-09-28T02:49:17.503Z,48.84
2022-09-28T02:52:04.708Z,48.43
2022-09-28T02:54:49.929Z,48.27
2022-09-28T02:57:19.749Z,48.51
2022-09-28T03:00:15.033Z,48.10
2022-09-28T03:03:00.616Z,48.08
2022-09-28T03:05:53.984Z,47.83
2022-09-28T03:08:31.185Z,47.89
2022-09-28T03:11:04.309Z,47.79
2022-09-28T03:13:32.198Z,47.66
2022-09-28T03:16:12.802Z,47.61
2022-09-28T03:18:41.343Z,47.61
2022-09-28T03:21:08.224Z,47.32
2022-09-28T03:23:35.276Z,47.16
2022-09-28T03:26:02.789Z,47.12
2022-09-28T03:28:30.380Z,46.74
2022-09-28T03:30:58.063Z,46.88
2022-09-28T03:33:25.146Z,46.95
2022-09-28T03:35:53.399Z,46.80
2022-09-28T03:38:20.589Z,46.72
2022-09-28T03:40:58.110Z,46.44
2022-09-28T03:43:25.406Z,46.40
2022-09-28T03:45:55.503Z,46.48
2022-09-28T03:48:31.361Z,46.54
2022-09-28T03:51:00.808Z,46.56
2022-09-28T03:53:29.588Z,46.36
2022-09-28T03:55:56.746Z,46.00
2022-09-28T03:58:23.702Z,45.90
2022-09-28T04:00:51.321Z,46.15
2022-09-28T04:03:18.419Z,45.85
2022-09-28T04:05:50.019Z,46.06
2022-09-28T04:08:17.248Z,45.68
2022-09-28T04:10:45.662Z,45.79
2022-09-28T04:13:12.701Z,45.78
2022-09-28T04:15:40.832Z,45.77
2022-09-28T04:18:11.528Z,45.60
2022-09-28T04:21:10.837Z,45.43
2022-09-28T04:23:44.706Z,45.43
2022-09-28T04:26:18.822Z,45.44
2022-09-28T04:29:06.765Z,45.39
2022-09-28T04:31:42.086Z,45.00
2022-09-28T04:34:10.032Z,45.01
2022-09-28T04:36:37.190Z,45.07
2022-09-28T04:39:04.272Z,45.19
2022-09-28T04:41:32.415Z,44.86
2022-09-28T04:43:59.403Z,44.92
2022-09-28T04:46:26.450Z,44.60
2022-09-28T04:49:22.601Z,44.88
2022-09-28T04:51:53.108Z,45.01
2022-09-28T04:54:20.014Z,44.74
2022-09-28T04:56:46.831Z,44.56
2022-09-28T04:59:13.786Z,44.60
2022-09-28T05:01:42.505Z,44.74
2022-09-28T05:04:28.326Z,44.73
2022-09-28T05:07:10.096Z,44.80
2022-09-28T05:09:38.661Z,44.58
2022-09-28T05:12:05.829Z,44.36
2022-09-28T05:14:32.687Z,44.34
2022-09-28T05:17:00.036Z,44.53
2022-09-28T05:19:27.013Z,44.63
2022-09-28T05:22:00.528Z,44.37
2022-09-28T05:24:27.597Z,44.25
2022-09-28T05:26:54.463Z,44.40
2022-09-28T05:29:21.460Z,44.49
2022-09-28T05:32:06.828Z,44.42
2022-09-28T05:34:52.526Z,44.23
2022-09-28T05:37:24.959Z,44.16
2022-09-28T05:39:51.852Z,44.03
2022-09-28T05:42:18.722Z,44.39
2022-09-28T05:44:45.618Z,44.48
2022-09-28T05:47:12.792Z,44.10
2022-09-28T05:49:39.745Z,44.03
2022-09-28T05:52:06.573Z,44.09
2022-09-28T05:54:37.387Z,44.29
2022-09-28T05:57:05.301Z,44.31
2022-09-28T05:59:32.115Z,44.16
2022-09-28T06:02:00.236Z,44.34
2022-09-28T06:04:27.296Z,44.46
2022-09-28T06:06:54.221Z,44.15
2022-09-28T06:09:25.927Z,44.20
2022-09-28T06:11:59.548Z,44.44
2022-09-28T06:14:55.312Z,44.35
2022-09-28T06:17:23.664Z,44.00
2022-09-28T06:20:11.662Z,44.25
2022-09-28T06:23:09.192Z,44.31
2022-09-28T06:25:36.187Z,44.26
2022-09-28T06:28:08.943Z,44.07
2022-09-28T06:30:38.148Z,44.12
2022-09-28T06:33:08.454Z,43.95
2022-09-28T06:35:36.641Z,44.29
2022-09-28T06:38:03.767Z,44.12
2022-09-28T06:40:31.703Z,44.32
2022-09-28T06:43:03.266Z,44.09
2022-09-28T06:45:52.728Z,43.75
2022-09-28T06:48:38.103Z,44.01
2022-09-28T06:51:07.168Z,44.11
2022-09-28T06:53:41.619Z,44.32
2022-09-28T06:56:22.182Z,44.20
2022-09-28T06:58:49.371Z,44.30
2022-09-28T07:01:16.311Z,44.50
2022-09-28T07:03:55.839Z,44.50
2022-09-28T07:06:47.780Z,44.29
2022-09-28T07:09:35.037Z,44.41
2022-09-28T07:12:42.084Z,44.52
2022-09-28T07:15:31.891Z,44.22
2022-09-28T07:18:03.081Z,44.46
2022-09-28T07:20:31.740Z,44.32
2022-09-28T07:23:11.545Z,43.97
2022-09-28T07:26:07.786Z,43.75
2022-09-28T07:29:13.178Z,43.80
2022-09-28T07:31:55.042Z,43.85
2022-09-28T07:34:46.264Z,43.78
2022-09-28T07:37:27.508Z,43.46
2022-09-28T07:40:13.440Z,43.41
2022-09-28T07:42:40.340Z,43.19
2022-09-28T07:45:07.863Z,43.39
2022-09-28T07:47:35.402Z,43.42
2022-09-28T07:50:21.318Z,43.33
2022-09-28T07:53:08.487Z,43.29
2022-09-28T07:55:53.143Z,43.55
2022-09-28T07:58:39.146Z,43.21
2022-09-28T08:01:32.255Z,43.23
2022-09-28T08:04:00.038Z,43.27
2022-09-28T08:06:26.908Z,43.68
2022-09-28T08:08:56.313Z,43.41
2022-09-28T08:11:29.472Z,43.40
2022-09-28T08:14:22.423Z,43.48
2022-09-28T08:17:01.280Z,43.34
2022-09-28T08:20:04.798Z,43.14
2022-09-28T08:22:32.368Z,43.43
2022-09-28T08:25:00.434Z,43.20
2022-09-28T08:27:27.763Z,43.17
2022-09-28T08:29:54.902Z,43.12
2022-09-28T08:32:44.979Z,43.17
2022-09-28T08:35:31.586Z,43.32
2022-09-28T08:38:13.625Z,43.27
2022-09-28T08:41:07.540Z,43.16
2022-09-28T08:43:59.732Z,43.00
2022-09-28T08:46:38.889Z,42.73
2022-09-28T08:49:37.093Z,42.82
2022-09-28T08:52:36.527Z,42.98
2022-09-28T08:55:17.209Z,42.93
2022-09-28T08:58:05.428Z,42.64
2022-09-28T09:00:47.622Z,42.54
2022-09-28T09:03:20.300Z,42.29
2022-09-28T09:06:30.092Z,42.41
2022-09-28T09:09:01.073Z,42.39
2022-09-28T09:11:49.339Z,42.71
2022-09-28T09:14:51.672Z,42.35
2022-09-28T09:17:42.990Z,42.47
2022-09-28T09:20:54.921Z,42.34
2022-09-28T09:23:46.577Z,42.25
2022-09-28T09:26:22.767Z,41.73
2022-09-28T09:29:03.041Z,41.81
2022-09-28T09:31:59.696Z,42.07
2022-09-28T09:34:42.508Z,42.17
2022-09-28T09:37:49.922Z,41.77
2022-09-28T09:40:38.511Z,41.88
2022-09-28T09:43:31.800Z,41.89
2022-09-28T09:46:30.017Z,42.03
2022-09-28T09:49:25.124Z,41.75
2022-09-28T09:52:15.178Z,41.74
2022-09-28T09:55:01.817Z,41.83
2022-09-28T09:57:41.254Z,41.78
2022-09-28T10:00:25.031Z,41.85
2022-09-28T10:03:04.734Z,41.86
2022-09-28T10:05:38.711Z,41.86
2022-09-28T10:08:08.628Z,41.77
2022-09-28T10:10:38.131Z,41.84
2022-09-28T10:13:11.004Z,41.73
2022-09-28T10:15:38.992Z,41.79
2022-09-28T10:18:16.625Z,41.88
2022-09-28T10:21:03.590Z,41.68
2022-09-28T10:24:49.834Z,41.79
2022-09-28T10:27:19.549Z,41.80
2022-09-28T10:29:50.143Z,41.82
2022-09-28T10:32:41.289Z,41.63
2022-09-28T10:35:22.776Z,41.75
2022-09-28T10:38:17.077Z,41.72
2022-09-28T10:40:47.713Z,41.64
2022-09-28T10:43:38.562Z,41.30
2022-09-28T10:46:12.793Z,41.35
2022-09-28T10:49:00.694Z,41.31
2022-09-28T10:51:43.657Z,41.41
2022-09-28T10:54:17.760Z,41.20
2022-09-28T10:56:46.909Z,41.31
2022-09-28T10:59:29.334Z,41.28
2022-09-28T11:02:26.535Z,41.22
2022-09-28T11:05:01.261Z,41.29
2022-09-28T11:07:33.496Z,41.41
2022-09-28T11:10:01.087Z,41.33
2022-09-28T11:12:37.140Z,41.66
2022-09-28T11:15:06.296Z,41.19
2022-09-28T11:17:34.284Z,41.37
2022-09-28T11:20:26.062Z,41.12
2022-09-28T11:22:59.202Z,41.46
2022-09-28T11:25:31.401Z,41.30
2022-09-28T11:28:00.999Z,41.24
2022-09-28T11:30:29.726Z,41.35
2022-09-28T11:33:20.749Z,41.34
2022-09-28T11:36:32.268Z,41.08
2022-09-28T11:39:11.448Z,40.98
2022-09-28T11:42:24.044Z,41.13
2022-09-28T11:44:54.074Z,41.18
2022-09-28T11:47:49.982Z,41.28
2022-09-28T11:50:36.179Z,41.26
2022-09-28T11:53:13.803Z,41.21
2022-09-28T11:56:08.869Z,41.21
2022-09-28T11:58:53.605Z,41.09
2022-09-28T12:01:26.672Z,41.32
2022-09-28T12:04:33.976Z,41.30
2022-09-28T12:07:09.181Z,41.37
2022-09-28T12:09:39.088Z,41.16
2022-09-28T12:12:32.603Z,40.82
2022-09-28T12:15:59.236Z,40.98
2022-09-28T12:18:40.124Z,41.00
2022-09-28T12:21:09.719Z,40.98
2022-09-28T12:23:37.367Z,40.43
2022-09-28T12:26:05.774Z,40.74
2022-09-28T12:28:39.609Z,41.04
2022-09-28T12:31:14.875Z,40.69
2022-09-28T12:33:42.704Z,40.65
2022-09-28T12:36:28.549Z,40.71
2022-09-28T12:39:27.124Z,40.82
2022-09-28T12:42:21.190Z,40.67
2022-09-28T12:45:10.102Z,40.71
2022-09-28T12:47:43.082Z,40.76
2022-09-28T12:53:14.972Z,40.62
2022-09-28T12:56:01.835Z,40.37
2022-09-28T12:59:05.413Z,40.69
2022-09-28T13:01:39.602Z,40.76
2022-09-28T13:04:12.781Z,40.85
2022-09-28T13:06:59.067Z,40.49
2022-09-28T13:09:26.807Z,40.60
2022-09-28T13:12:13.104Z,40.48
2022-09-28T13:15:01.199Z,40.74
2022-09-28T13:17:39.156Z,40.78
2022-09-28T13:20:39.354Z,40.54
2022-09-28T13:23:15.406Z,40.50
2022-09-28T13:26:11.508Z,40.37
2022-09-28T13:28:38.372Z,40.46
2022-09-28T13:31:05.199Z,40.61
2022-09-28T13:33:40.260Z,40.47
2022-09-28T13:36:25.966Z,40.36
2022-09-28T13:38:53.078Z,40.31
2022-09-28T13:41:40.531Z,40.70
2022-09-28T13:44:13.464Z,40.72
2022-09-28T13:46:58.748Z,40.69
2022-09-28T13:49:41.001Z,40.46
2022-09-28T13:52:47.992Z,40.73
2022-09-28T13:55:33.275Z,40.54
2022-09-28T13:58:21.487Z,40.47
2022-09-28T14:00:51.340Z,40.60
2022-09-28T14:03:24.330Z,40.72
2022-09-28T14:06:00.834Z,40.45
2022-09-28T14:08:34.755Z,40.61
2022-09-28T14:11:34.280Z,40.85
2022-09-28T14:14:14.178Z,40.74
2022-09-28T14:16:41.637Z,40.88
2022-09-28T14:19:21.611Z,40.64
2022-09-28T14:22:07.164Z,40.91
2022-09-28T14:24:37.828Z,40.74
2022-09-28T14:27:18.993Z,41.01
2022-09-28T14:29:45.906Z,41.11
2022-09-28T14:32:12.673Z,40.90
2022-09-28T14:34:54.740Z,41.29
2022-09-28T14:37:43.393Z,40.92
2022-09-28T14:40:36.164Z,40.86
2022-09-28T14:43:34.781Z,40.90
2022-09-28T14:46:23.219Z,41.14
2022-09-28T14:48:52.694Z,41.03
2022-09-28T14:51:31.364Z,40.89
2022-09-28T14:54:04.570Z,40.85
2022-09-28T14:56:40.390Z,40.76
2022-09-28T14:59:07.566Z,41.27
2022-09-28T15:01:34.415Z,40.99
2022-09-28T15:04:04.841Z,40.92
2022-09-28T15:06:48.522Z,40.89
2022-09-28T15:09:44.463Z,40.96
2022-09-28T15:12:13.161Z,41.07
2022-09-28T15:14:56.461Z,41.10
2022-09-28T15:17:39.280Z,40.93
2022-09-28T15:20:30.085Z,41.07
2022-09-28T15:22:58.454Z,40.94
2022-09-28T15:25:30.110Z,41.15
2022-09-28T15:28:03.500Z,41.02
2022-09-28T15:30:32.009Z,41.09
2022-09-28T15:33:18.523Z,41.11
2022-09-28T15:35:55.755Z,40.96
2022-09-28T15:38:22.630Z,41.06
2022-09-28T15:40:49.493Z,40.89
2022-09-28T15:43:29.067Z,41.43
2022-09-28T15:46:11.232Z,41.35
2022-09-28T15:48:52.172Z,41.73
2022-09-28T15:51:20.035Z,41.44
2022-09-28T15:53:58.933Z,41.46
2022-09-28T15:56:26.274Z,41.71
2022-09-28T15:59:13.185Z,41.32
2022-09-28T16:01:41.026Z,41.38
2022-09-28T16:04:38.778Z,41.58
2022-09-28T16:07:23.979Z,41.43
2022-09-28T16:10:01.036Z,41.81
2022-09-28T16:12:36.597Z,41.38
2022-09-28T16:15:07.141Z,41.66
2022-09-28T16:17:35.013Z,41.66
2022-09-28T16:20:03.845Z,41.50
2022-09-28T16:22:32.555Z,41.53
2022-09-28T16:25:00.051Z,42.01
2022-09-28T16:27:29.773Z,41.63
2022-09-28T16:30:16.995Z,41.82
2022-09-28T16:32:52.595Z,41.57
2022-09-28T16:35:19.417Z,41.93
2022-09-28T16:37:58.059Z,41.81
2022-09-28T16:40:25.045Z,41.70
2022-09-28T16:42:51.908Z,41.87
2022-09-28T16:45:20.388Z,42.01
2022-09-28T16:47:47.977Z,42.22
2022-09-28T16:50:15.176Z,42.15
2022-09-28T16:53:00.827Z,42.10
2022-09-28T16:55:40.053Z,42.17
2022-09-28T16:58:08.209Z,42.14
2022-09-28T17:00:35.078Z,42.46
2022-09-28T17:03:02.278Z,42.51
2022-09-28T17:05:29.545Z,42.84
2022-09-28T17:08:03.420Z,42.99
2022-09-28T17:10:50.049Z,42.66
2022-09-28T17:13:33.148Z,42.66
2022-09-28T17:16:01.638Z,42.80
2022-09-28T17:18:31.810Z,42.95
2022-09-28T17:21:01.564Z,43.05
2022-09-28T17:23:28.511Z,43.18
2022-09-28T17:25:55.673Z,43.28
2022-09-28T17:28:26.081Z,43.49
2022-09-28T17:30:53.130Z,43.26
2022-09-28T17:33:20.246Z,43.40
2022-09-28T17:35:47.303Z,43.22
2022-09-28T17:38:15.155Z,43.18
2022-09-28T17:40:43.201Z,43.50
2022-09-28T17:43:10.145Z,43.50
2022-09-28T17:45:41.064Z,43.43
2022-09-28T17:48:12.555Z,43.43
2022-09-28T17:50:43.187Z,43.58
2022-09-28T17:53:12.882Z,43.16
2022-09-28T17:55:39.945Z,43.55
2022-09-28T17:58:17.818Z,43.67
2022-09-28T18:00:45.585Z,43.73
2022-09-28T18:03:16.988Z,43.85
2022-09-28T18:05:44.177Z,43.87
2022-09-28T18:08:17.131Z,43.54
2022-09-28T18:10:44.019Z,43.49
2022-09-28T18:13:10.995Z,43.75
2022-09-28T18:15:38.303Z,43.91
2022-09-28T18:18:05.270Z,44.16
2022-09-28T18:20:32.142Z,44.27
2022-09-28T18:22:58.995Z,44.32
2022-09-28T18:25:25.782Z,43.67
2022-09-28T18:27:57.284Z,43.72
2022-09-28T18:30:24.640Z,43.80
2022-09-28T18:32:51.520Z,43.87
2022-09-28T18:35:22.755Z,44.01
2022-09-28T18:37:50.372Z,43.98
2022-09-28T18:40:17.308Z,43.66
2022-09-28T18:42:44.233Z,43.94
2022-09-28T18:45:11.344Z,43.95
2022-09-28T18:47:39.055Z,44.00
2022-09-28T18:50:06.420Z,44.08
2022-09-28T18:52:36.371Z,44.08
2022-09-28T18:55:03.399Z,44.24
2022-09-28T18:57:33.561Z,44.17
2022-09-28T19:00:01.295Z,44.30
2022-09-28T19:02:28.262Z,44.25
2022-09-28T19:04:55.234Z,44.41
2022-09-28T19:07:22.121Z,44.40
2022-09-28T19:09:48.972Z,44.46
2022-09-28T19:12:16.056Z,44.55
2022-09-28T19:14:42.907Z,44.39
2022-09-28T19:17:10.251Z,44.64
2022-09-28T19:19:37.103Z,44.55
2022-09-28T19:22:04.349Z,44.68
2022-09-28T19:24:31.273Z,44.76
2022-09-28T19:26:58.137Z,44.93
2022-09-28T19:29:25.032Z,44.98
2022-09-28T19:31:51.953Z,44.72
2022-09-28T19:34:19.021Z,44.92
2022-09-28T19:36:45.966Z,45.00
2022-09-28T19:39:14.222Z,44.99
2022-09-28T19:41:43.344Z,45.12
2022-09-28T19:44:31.283Z,45.18
2022-09-28T19:47:10.077Z,45.25
2022-09-28T19:49:39.275Z,45.19
2022-09-28T19:52:16.790Z,45.10
2022-09-28T19:54:45.509Z,45.78
2022-09-28T19:57:13.110Z,45.18
2022-09-28T19:59:40.007Z,45.13
2022-09-28T20:02:07.231Z,45.26
2022-09-28T20:04:34.172Z,45.28
2022-09-28T20:07:01.884Z,45.12
2022-09-28T20:09:28.932Z,45.35
2022-09-28T20:11:55.893Z,45.41
2022-09-28T20:14:24.590Z,45.75
2022-09-28T20:16:55.213Z,45.51
2022-09-28T20:19:23.266Z,45.67
2022-09-28T20:21:50.448Z,45.56
2022-09-28T20:24:17.545Z,45.54
2022-09-28T20:26:45.940Z,45.68
2022-09-28T20:29:12.974Z,45.52
2022-09-28T20:31:40.071Z,45.69
2022-09-28T20:34:07.104Z,45.69
2022-09-28T20:36:34.191Z,45.74
2022-09-28T20:39:04.114Z,45.68
2022-09-28T20:41:35.702Z,45.81
2022-09-28T20:44:05.636Z,45.88
2022-09-28T20:46:36.480Z,46.02
2022-09-28T20:49:04.115Z,45.95
2022-09-28T20:51:31.110Z,46.02
2022-09-28T20:53:58.231Z,46.07
2022-09-28T20:56:30.580Z,45.97
2022-09-28T20:58:57.538Z,46.16
2022-09-28T21:01:25.824Z,46.23
2022-09-28T21:04:02.828Z,46.25
2022-09-28T21:06:31.146Z,46.29
2022-09-28T21:08:58.166Z,46.25
2022-09-28T21:11:25.971Z,46.16
2022-09-28T21:13:56.648Z,46.38
2022-09-28T21:16:23.475Z,46.63
2022-09-28T21:18:50.306Z,46.33
2022-09-28T21:21:18.310Z,46.19
2022-09-28T21:23:45.192Z,46.18
2022-09-28T21:26:17.672Z,46.27
2022-09-28T21:28:46.017Z,46.21
2022-09-28T21:31:12.981Z,46.33
2022-09-28T21:33:39.913Z,46.50
2022-09-28T21:36:07.586Z,46.52
2022-09-28T21:38:34.716Z,46.32
2022-09-28T21:41:01.653Z,46.64
2022-09-28T21:43:29.077Z,46.54
2022-09-28T21:45:56.119Z,46.58
2022-09-28T21:48:23.509Z,46.58
2022-09-28T21:51:03.716Z,46.56
2022-09-28T21:53:35.081Z,46.70
2022-09-28T21:56:02.261Z,46.22
2022-09-28T21:58:30.588Z,46.62
2022-09-28T22:01:07.084Z,46.73
2022-09-28T22:03:35.569Z,46.81
2022-09-28T22:06:03.496Z,46.80
2022-09-28T22:08:30.371Z,46.74
2022-09-28T22:11:07.383Z,46.65
2022-09-28T22:13:47.890Z,46.75
2022-09-28T22:16:15.824Z,46.68
2022-09-28T22:18:42.818Z,46.64
2022-09-28T22:21:35.778Z,46.82
2022-09-28T22:24:03.813Z,46.88
2022-09-28T22:26:31.871Z,46.94
2022-09-28T22:29:00.281Z,46.94
2022-09-28T22:31:31.606Z,46.92
2022-09-28T22:33:58.758Z,47.03
2022-09-28T22:36:25.982Z,47.10
2022-09-28T22:38:53.765Z,47.05
2022-09-28T22:41:20.962Z,47.09
2022-09-28T22:43:48.760Z,47.12
2022-09-28T22:46:17.212Z,47.19
2022-09-28T22:48:52.669Z,47.04
2022-09-28T22:51:19.727Z,47.03
2022-09-28T22:53:46.545Z,47.12
2022-09-28T22:56:18.367Z,47.09
2022-09-28T22:58:45.715Z,47.30
2022-09-28T23:01:13.498Z,47.29
2022-09-28T23:03:40.541Z,47.41
2022-09-28T23:06:07.620Z,47.56
2022-09-28T23:08:34.618Z,47.37
2022-09-28T23:11:01.576Z,47.46
2022-09-28T23:13:28.875Z,47.57
2022-09-28T23:16:02.959Z,47.53
2022-09-28T23:18:31.696Z,47.60
2022-09-28T23:21:00.171Z,47.60
2022-09-28T23:23:27.103Z,47.37
2022-09-28T23:25:54.053Z,47.33
2022-09-28T23:28:21.735Z,47.33
2022-09-28T23:30:48.803Z,47.32
2022-09-28T23:33:16.657Z,47.39
2022-09-28T23:35:44.028Z,47.37
2022-09-28T23:38:14.573Z,47.55
2022-09-28T23:40:41.614Z,47.66
2022-09-28T23:43:08.616Z,47.72
2022-09-28T23:45:35.492Z,47.84
2022-09-28T23:48:02.543Z,47.73
2022-09-28T23:50:29.402Z,47.67
2022-09-28T23:52:56.310Z,47.84
2022-09-28T23:55:23.308Z,47.75
2022-09-28T23:57:50.501Z,47.98
